Terminal Aerodrome Forecast
Issued by NWS Memphis, TN

Home | Current Version | Previous Version | Text Only | Print | Product List | Glossary On
Versions: 1 2 3 4 5 6 7 8 9 10 11 12 13 14 15 16 17 18 19 20 21 22 23 24 25 26
000
FTUS44 KMEG 271135 CCA
TAFMEM
TAF COR
KMEM 271135Z 2712/2812 15005KT P6SM FEW020 SCT060
      TEMPO 2713/2715 BKN020
     FM271500 16006KT P6SM VCSH SCT025 BKN060
     FM271700 15007KT P6SM VCTS BKN040CB
      TEMPO 2720/2724 4SM -TSRA BKN025CB
     FM280100 13005KT 6SM BR VCTS BKN015CB=

USA.gov is the U.S. government's official web portal to all federal, state and local government web resources and services.